Time;durP1;ratioP1;P1;durP2;ratioP2;P2;SDS_P1;SDS_P2;PMS_P1;PMS_P2;Temp;Humidity;BMP_temperature;BMP_pressure;BME280_temperature;BME280_humidity;BME280_pressure;Samples;Min_cycle;Max_cycle;Signal;HPM_P1;HPM_P2
2023/04/12 00:01:00;;;;;;;5.45;1.52;;;;;;;;;;5019962;28;20068;-72
2023/04/12 00:03:27;;;;;;;5.80;1.48;;;;;;;;;;5011776;28;20091;-69
2023/04/12 00:05:56;;;;;;;3.58;1.20;;;;;;;;;;5037684;28;20099;-70
2023/04/12 00:08:25;;;;;;;4.25;1.10;;;;;;;;;;5028216;28;20139;-71
2023/04/12 00:10:52;;;;;;;2.38;0.90;;;;;;;;;;5013556;28;20064;-71
2023/04/12 00:13:19;;;;;;;5.35;1.33;;;;;;;;;;5023680;28;20061;-69
2023/04/12 00:15:45;;;;;;;2.20;1.00;;;;;;;;;;5013429;28;20061;-71
2023/04/12 00:18:12;;;;;;;1.98;1.10;;;;;;;;;;5023939;28;20060;-71
2023/04/12 00:20:39;;;;;;;4.78;1.23;;;;;;;;;;5019761;28;20052;-72
2023/04/12 00:23:08;;;;;;;5.55;1.10;;;;;;;;;;5019605;28;20059;-72
2023/04/12 00:25:35;;;;;;;6.95;1.20;;;;;;;;;;5024368;28;20063;-70
2023/04/12 00:28:02;;;;;;;3.40;1.15;;;;;;;;;;5034982;28;20127;-72
2023/04/12 00:30:31;;;;;;;3.80;1.20;;;;;;;;;;5017833;28;20058;-69
2023/04/12 00:32:58;;;;;;;4.35;1.00;;;;;;;;;;5020675;28;20052;-73
2023/04/12 00:35:25;;;;;;;4.95;1.10;;;;;;;;;;5023863;28;20052;-70
2023/04/12 00:37:51;;;;;;;5.20;1.30;;;;;;;;;;5011523;28;20116;-71
2023/04/12 00:40:19;;;;;;;3.63;1.20;;;;;;;;;;5027020;28;20060;-73
2023/04/12 00:42:46;;;;;;;4.25;1.23;;;;;;;;;;5014073;28;20188;-72
2023/04/12 00:45:14;;;;;;;4.82;1.25;;;;;;;;;;5025441;28;20052;-70
2023/04/12 00:47:42;;;;;;;6.93;1.35;;;;;;;;;;5019588;28;20065;-71
2023/04/12 00:50:09;;;;;;;2.00;1.03;;;;;;;;;;5023687;28;20053;-70
2023/04/12 00:52:36;;;;;;;5.90;1.40;;;;;;;;;;5035067;28;20053;-73
2023/04/12 00:55:03;;;;;;;1.67;0.82;;;;;;;;;;5030746;28;20060;-73
2023/04/12 00:57:34;;;;;;;2.55;0.93;;;;;;;;;;5013288;28;20053;-73
2023/04/12 01:00:02;;;;;;;2.47;1.00;;;;;;;;;;5037979;28;20136;-69
2023/04/12 01:02:33;;;;;;;3.17;1.00;;;;;;;;;;5022498;28;20057;-74
2023/04/12 01:05:00;;;;;;;4.28;1.13;;;;;;;;;;5034498;28;20053;-72
2023/04/12 01:07:32;;;;;;;3.53;1.08;;;;;;;;;;5013642;28;20087;-71
2023/04/12 01:10:02;;;;;;;4.07;1.00;;;;;;;;;;5019972;28;20046;-72
2023/04/12 01:12:37;;;;;;;4.15;1.08;;;;;;;;;;5033628;28;20072;-74
2023/04/12 01:15:05;;;;;;;2.20;0.80;;;;;;;;;;5006647;28;20076;-70
2023/04/12 01:17:36;;;;;;;;;;;;;;;;;;5012815;28;20057;-73
2023/04/12 01:20:12;;;;;;;3.92;0.90;;;;;;;;;;5013412;28;19929;-71
2023/04/12 01:22:46;;;;;;;4.85;0.90;;;;;;;;;;5007048;28;20059;-72
2023/04/12 01:25:22;;;;;;;7.40;1.17;;;;;;;;;;5017055;28;20054;-71
2023/04/12 01:27:54;;;;;;;3.85;1.10;;;;;;;;;;5012145;28;20057;-72
2023/04/12 01:30:21;;;;;;;6.72;1.35;;;;;;;;;;5016701;28;20053;-72
2023/04/12 01:32:50;;;;;;;2.90;0.85;;;;;;;;;;5002086;28;20102;-72
2023/04/12 01:35:17;;;;;;;3.05;1.05;;;;;;;;;;5025555;28;20098;-72
2023/04/12 01:37:44;;;;;;;2.60;0.90;;;;;;;;;;5010831;28;20045;-71
2023/04/12 01:40:12;;;;;;;3.35;0.90;;;;;;;;;;5015566;28;20145;-73
2023/04/12 01:42:38;;;;;;;3.55;0.95;;;;;;;;;;5009324;28;20053;-70
2023/04/12 01:45:07;;;;;;;5.45;1.30;;;;;;;;;;5026397;28;20057;-72
2023/04/12 01:47:34;;;;;;;2.55;0.80;;;;;;;;;;5014918;28;20060;-72
2023/04/12 01:50:06;;;;;;;2.33;0.88;;;;;;;;;;5008906;28;20053;-73
2023/04/12 01:52:36;;;;;;;4.57;1.08;;;;;;;;;;5012334;28;20053;-72
2023/04/12 01:55:04;;;;;;;3.95;0.80;;;;;;;;;;5034390;28;20081;-73
2023/04/12 01:57:31;;;;;;;4.38;1.00;;;;;;;;;;5031614;28;20060;-72
2023/04/12 01:59:59;;;;;;;3.70;0.95;;;;;;;;;;5018129;28;20102;-73
2023/04/12 02:02:28;;;;;;;4.78;0.80;;;;;;;;;;5014391;28;20061;-73
2023/04/12 02:04:55;;;;;;;4.55;0.90;;;;;;;;;;4988331;28;20067;-71
2023/04/12 02:07:22;;;;;;;2.78;0.60;;;;;;;;;;5009472;28;20060;-72
2023/04/12 02:09:48;;;;;;;2.97;0.88;;;;;;;;;;5014005;28;20057;-74
2023/04/12 02:12:15;;;;;;;2.88;0.80;;;;;;;;;;5042101;28;20085;-70
2023/04/12 02:14:42;;;;;;;2.33;0.90;;;;;;;;;;5010167;28;20057;-72
2023/04/12 02:17:09;;;;;;;5.05;1.15;;;;;;;;;;4999400;28;20318;-74
2023/04/12 02:19:37;;;;;;;3.60;0.90;;;;;;;;;;5017865;28;20057;-71
2023/04/12 02:22:04;;;;;;;1.35;0.80;;;;;;;;;;5014038;28;20072;-73
2023/04/12 02:24:31;;;;;;;1.85;0.80;;;;;;;;;;5004028;28;20180;-73
2023/04/12 02:27:02;;;;;;;1.48;0.85;;;;;;;;;;5021597;28;20065;-71
2023/04/12 02:29:30;;;;;;;4.78;1.27;;;;;;;;;;5027081;28;20118;-71
2023/04/12 02:31:56;;;;;;;2.63;0.77;;;;;;;;;;5023647;28;20045;-70
2023/04/12 02:34:23;;;;;;;2.35;0.85;;;;;;;;;;5010264;28;20053;-72
2023/04/12 02:36:51;;;;;;;3.83;0.70;;;;;;;;;;5010858;28;20140;-74
2023/04/12 02:39:20;;;;;;;4.32;1.00;;;;;;;;;;5022190;28;20053;-70
2023/04/12 02:41:47;;;;;;;6.18;0.98;;;;;;;;;;5023954;28;20064;-73
2023/04/12 02:44:14;;;;;;;2.90;1.00;;;;;;;;;;5009215;28;20121;-72
2023/04/12 02:46:41;;;;;;;2.78;0.80;;;;;;;;;;5025411;28;20056;-71
2023/04/12 02:49:07;;;;;;;4.10;1.08;;;;;;;;;;5005169;28;21069;-72
2023/04/12 02:51:34;;;;;;;1.95;0.65;;;;;;;;;;5014000;28;20065;-71
2023/04/12 02:54:02;;;;;;;4.28;0.90;;;;;;;;;;5027168;28;20061;-72
2023/04/12 02:56:29;;;;;;;2.47;0.80;;;;;;;;;;5039097;28;20144;-73
2023/04/12 02:58:55;;;;;;;2.50;1.17;;;;;;;;;;5012099;28;20216;-72
2023/04/12 03:01:25;;;;;;;3.70;1.00;;;;;;;;;;5021376;28;20057;-71
2023/04/12 03:03:52;;;;;;;2.83;0.75;;;;;;;;;;5016907;28;20053;-72
2023/04/12 03:06:18;;;;;;;2.72;0.93;;;;;;;;;;5012351;28;20077;-74
2023/04/12 03:08:45;;;;;;;2.97;0.80;;;;;;;;;;5022228;28;20134;-72
2023/04/12 03:11:13;;;;;;;3.63;0.88;;;;;;;;;;5046135;28;20056;-73
2023/04/12 03:13:40;;;;;;;3.33;0.90;;;;;;;;;;5025876;28;20087;-71
2023/04/12 03:16:20;;;;;;;4.72;1.10;;;;;;;;;;5042934;28;20084;-73
2023/04/12 03:18:46;;;;;;;3.13;0.80;;;;;;;;;;5024913;28;20053;-73
2023/04/12 03:21:13;;;;;;;1.30;0.80;;;;;;;;;;5009702;28;20075;-72
2023/04/12 03:23:40;;;;;;;1.60;0.60;;;;;;;;;;5019330;28;20044;-72
2023/04/12 03:26:07;;;;;;;3.17;0.90;;;;;;;;;;5033428;28;20049;-72
2023/04/12 03:28:35;;;;;;;4.10;0.90;;;;;;;;;;5028553;28;20049;-73
2023/04/12 03:31:02;;;;;;;2.97;1.02;;;;;;;;;;5014328;28;20060;-71
2023/04/12 03:33:29;;;;;;;3.25;0.80;;;;;;;;;;5010640;28;20045;-71
2023/04/12 03:35:55;;;;;;;1.60;0.88;;;;;;;;;;5011004;28;20053;-73
2023/04/12 03:38:23;;;;;;;4.22;1.08;;;;;;;;;;5013852;28;20113;-72
2023/04/12 03:40:50;;;;;;;2.50;0.80;;;;;;;;;;5037621;28;20064;-72
2023/04/12 03:43:17;;;;;;;2.58;0.80;;;;;;;;;;5028724;28;20056;-74
2023/04/12 03:45:45;;;;;;;1.70;0.60;;;;;;;;;;5016299;28;20052;-72
2023/04/12 03:48:12;;;;;;;4.10;0.90;;;;;;;;;;5035970;28;20060;-71
2023/04/12 03:50:43;;;;;;;4.25;0.90;;;;;;;;;;5021404;28;20053;-73
2023/04/12 03:53:10;;;;;;;2.95;1.10;;;;;;;;;;5022794;28;20079;-73
2023/04/12 03:55:37;;;;;;;1.20;0.70;;;;;;;;;;5019131;28;20061;-74
2023/04/12 03:58:04;;;;;;;6.45;0.85;;;;;;;;;;5033805;28;20059;-72
2023/04/12 04:00:31;;;;;;;3.33;0.90;;;;;;;;;;5030009;28;20075;-73
2023/04/12 04:03:01;;;;;;;3.40;1.00;;;;;;;;;;5052690;28;20063;-71
2023/04/12 04:05:28;;;;;;;2.47;0.77;;;;;;;;;;5043468;28;20107;-74
2023/04/12 04:07:55;;;;;;;4.28;0.90;;;;;;;;;;5024182;28;20061;-75
2023/04/12 04:10:22;;;;;;;1.38;0.70;;;;;;;;;;5032052;28;20053;-73
2023/04/12 04:12:48;;;;;;;2.65;0.77;;;;;;;;;;5031632;28;20056;-74
2023/04/12 04:15:16;;;;;;;3.05;0.75;;;;;;;;;;5022098;28;20114;-72
2023/04/12 04:17:43;;;;;;;0.88;0.47;;;;;;;;;;5019762;28;20063;-75
2023/04/12 04:20:12;;;;;;;4.13;1.00;;;;;;;;;;5016201;28;20075;-73
2023/04/12 04:22:39;;;;;;;1.10;0.60;;;;;;;;;;5020772;28;20057;-72
2023/04/12 04:25:08;;;;;;;2.83;0.80;;;;;;;;;;5000470;28;20061;-77
2023/04/12 04:27:37;;;;;;;2.13;0.70;;;;;;;;;;5033215;28;20149;-71
2023/04/12 04:30:05;;;;;;;2.97;0.77;;;;;;;;;;5019452;28;20049;-75
2023/04/12 04:32:32;;;;;;;1.80;0.80;;;;;;;;;;5018467;28;20052;-74
2023/04/12 04:35:01;;;;;;;2.63;0.80;;;;;;;;;;5015567;28;20303;-74
2023/04/12 04:37:27;;;;;;;;;;;;;;;;;;5016079;28;21062;-75
2023/04/12 04:39:58;;;;;;;1.42;0.70;;;;;;;;;;5042333;28;19925;-73
2023/04/12 04:42:25;;;;;;;3.15;0.93;;;;;;;;;;5043852;28;20068;-74
2023/04/12 04:44:59;;;;;;;5.70;0.90;;;;;;;;;;5011548;28;20044;-74
2023/04/12 04:47:29;;;;;;;1.10;0.60;;;;;;;;;;5013706;28;20152;-74
2023/04/12 04:49:56;;;;;;;1.92;0.77;;;;;;;;;;5022934;28;20049;-72
2023/04/12 04:52:23;;;;;;;1.42;0.70;;;;;;;;;;5021054;28;20112;-72
2023/04/12 04:54:50;;;;;;;1.52;0.65;;;;;;;;;;5023913;28;20056;-74
2023/04/12 04:57:18;;;;;;;2.05;1.00;;;;;;;;;;5026172;28;20156;-74
2023/04/12 04:59:46;;;;;;;4.40;1.10;;;;;;;;;;5022912;28;20056;-75
2023/04/12 05:02:13;;;;;;;3.00;0.82;;;;;;;;;;5053437;28;20097;-72
2023/04/12 05:04:40;;;;;;;1.42;0.80;;;;;;;;;;5029576;28;20057;-72
2023/04/12 05:07:07;;;;;;;2.53;0.95;;;;;;;;;;5019654;28;20053;-74
2023/04/12 05:09:34;;;;;;;3.95;0.95;;;;;;;;;;5019242;28;20053;-74
2023/04/12 05:12:01;;;;;;;3.33;1.15;;;;;;;;;;5021347;28;20076;-74
2023/04/12 05:14:29;;;;;;;1.15;0.82;;;;;;;;;;5014695;28;20057;-72
2023/04/12 05:16:59;;;;;;;1.60;0.88;;;;;;;;;;5020123;28;20057;-75
2023/04/12 05:19:26;;;;;;;1.77;0.95;;;;;;;;;;5023908;28;20053;-73
2023/04/12 05:22:01;;;;;;;2.70;0.90;;;;;;;;;;5017164;28;20069;-75
2023/04/12 05:24:27;;;;;;;3.50;0.85;;;;;;;;;;5012280;28;20060;-73
2023/04/12 05:26:58;;;;;;;3.13;0.80;;;;;;;;;;5021951;28;20136;-73
2023/04/12 05:29:34;;;;;;;1.45;0.90;;;;;;;;;;5012229;28;20057;-73
2023/04/12 05:32:04;;;;;;;2.72;1.00;;;;;;;;;;5017474;28;20144;-74
2023/04/12 05:34:31;;;;;;;2.85;0.88;;;;;;;;;;4979611;28;20053;-75
2023/04/12 05:37:11;;;;;;;4.32;1.10;;;;;;;;;;5015137;28;20061;-75
2023/04/12 05:39:38;;;;;;;5.03;0.90;;;;;;;;;;5021743;28;20053;-75
2023/04/12 05:42:05;;;;;;;1.08;0.73;;;;;;;;;;5016853;28;20045;-74
2023/04/12 05:44:34;;;;;;;2.38;0.90;;;;;;;;;;5009392;28;20053;-73
2023/04/12 05:47:03;;;;;;;;;;;;;;;;;;5034414;28;20087;-76
2023/04/12 05:49:31;;;;;;;1.92;0.70;;;;;;;;;;5017180;28;19925;-75
2023/04/12 05:52:02;;;;;;;2.17;0.80;;;;;;;;;;5006978;28;20080;-73
2023/04/12 05:54:29;;;;;;;1.75;0.73;;;;;;;;;;4992218;28;20087;-74
2023/04/12 05:56:59;;;;;;;1.40;0.60;;;;;;;;;;5014953;28;20060;-75
2023/04/12 05:59:30;;;;;;;0.70;0.68;;;;;;;;;;4989361;28;20064;-75
2023/04/12 06:01:58;;;;;;;3.50;0.82;;;;;;;;;;5036826;28;20052;-75
2023/04/12 06:04:30;;;;;;;5.32;1.10;;;;;;;;;;5024513;28;20087;-74
2023/04/12 06:07:06;;;;;;;0.90;0.70;;;;;;;;;;5015482;28;20053;-73
2023/04/12 06:09:35;;;;;;;1.58;0.88;;;;;;;;;;5009661;28;20139;-74
2023/04/12 06:12:09;;;;;;;5.07;1.00;;;;;;;;;;5002234;28;20068;-74
2023/04/12 06:14:35;;;;;;;1.73;0.90;;;;;;;;;;5001731;28;20211;-73
2023/04/12 06:17:10;;;;;;;3.47;1.00;;;;;;;;;;5004767;28;20045;-73
2023/04/12 06:19:37;;;;;;;0.82;0.63;;;;;;;;;;5014993;28;20308;-74
2023/04/12 06:22:08;;;;;;;2.38;1.00;;;;;;;;;;5047312;28;20057;-74
2023/04/12 06:24:36;;;;;;;1.85;0.70;;;;;;;;;;5007566;28;20049;-73
2023/04/12 06:27:04;;;;;;;3.10;0.80;;;;;;;;;;5019978;28;20076;-75
2023/04/12 06:29:33;;;;;;;1.08;0.63;;;;;;;;;;5031477;28;20060;-75
2023/04/12 06:32:00;;;;;;;;;;;;;;;;;;5019188;28;20068;-73
2023/04/12 06:34:32;;;;;;;1.95;0.80;;;;;;;;;;5012503;28;19946;-73
2023/04/12 06:37:03;;;;;;;1.83;0.80;;;;;;;;;;5023522;28;20088;-73
2023/04/12 06:39:32;;;;;;;1.08;0.68;;;;;;;;;;5030209;28;20062;-75
2023/04/12 06:42:01;;;;;;;1.65;0.85;;;;;;;;;;5004902;28;20381;-75
2023/04/12 06:44:33;;;;;;;3.25;0.90;;;;;;;;;;5002581;28;20053;-74
2023/04/12 06:47:02;;;;;;;2.10;1.00;;;;;;;;;;5008328;28;20075;-75
2023/04/12 06:49:32;;;;;;;5.25;1.25;;;;;;;;;;4986023;28;20061;-72
2023/04/12 06:52:03;;;;;;;1.48;0.73;;;;;;;;;;5013106;28;20044;-73
2023/04/12 06:54:33;;;;;;;2.10;0.85;;;;;;;;;;4989356;28;21180;-75
2023/04/12 06:57:12;;;;;;;1.23;0.82;;;;;;;;;;5000133;28;20048;-76
2023/04/12 06:59:38;;;;;;;;;;;;;;;;;;5036576;28;20053;-75
2023/04/12 07:02:06;;;;;;;4.07;0.90;;;;;;;;;;5013002;28;20015;-74
2023/04/12 07:04:36;;;;;;;1.33;0.70;;;;;;;;;;4998632;28;20061;-74
2023/04/12 07:07:03;;;;;;;1.13;0.77;;;;;;;;;;4991623;28;20065;-73
2023/04/12 07:09:31;;;;;;;1.98;1.10;;;;;;;;;;5019982;28;20059;-75
2023/04/12 07:11:57;;;;;;;1.77;1.00;;;;;;;;;;5033457;28;20057;-73
2023/04/12 07:14:31;;;;;;;1.42;0.90;;;;;;;;;;4992424;28;20295;-73
2023/04/12 07:17:07;;;;;;;1.90;0.85;;;;;;;;;;5010943;28;20060;-74
2023/04/12 07:19:43;;;;;;;2.83;0.75;;;;;;;;;;4993544;28;20187;-73
2023/04/12 07:22:12;;;;;;;3.75;0.90;;;;;;;;;;5015681;28;20049;-75
2023/04/12 07:24:41;;;;;;;3.67;1.10;;;;;;;;;;4995371;28;20061;-74
2023/04/12 07:27:11;;;;;;;2.78;0.85;;;;;;;;;;5001811;28;20058;-75
2023/04/12 07:29:39;;;;;;;1.75;0.77;;;;;;;;;;5007449;28;20076;-73
2023/04/12 07:32:12;;;;;;;2.00;0.77;;;;;;;;;;5008421;28;20147;-72
2023/04/12 07:34:39;;;;;;;3.85;1.15;;;;;;;;;;5012191;28;20272;-74
2023/04/12 07:37:08;;;;;;;2.28;1.10;;;;;;;;;;5024528;28;20056;-73
2023/04/12 07:39:41;;;;;;;1.20;0.90;;;;;;;;;;5026850;28;20053;-73
2023/04/12 07:42:08;;;;;;;1.42;0.80;;;;;;;;;;5031300;28;20064;-74
2023/04/12 07:44:35;;;;;;;4.22;1.00;;;;;;;;;;5012115;28;20062;-74
2023/04/12 07:47:03;;;;;;;2.55;0.82;;;;;;;;;;5034325;28;20048;-72
2023/04/12 07:49:30;;;;;;;2.70;1.08;;;;;;;;;;5028267;28;20080;-74
2023/04/12 07:52:07;;;;;;;1.85;0.88;;;;;;;;;;5016772;28;20056;-73
2023/04/12 07:54:34;;;;;;;1.98;1.00;;;;;;;;;;5023153;28;20060;-72
2023/04/12 07:57:05;;;;;;;1.48;0.90;;;;;;;;;;5020782;28;20148;-74
2023/04/12 07:59:35;;;;;;;3.28;0.98;;;;;;;;;;5030434;28;20076;-74
2023/04/12 08:02:09;;;;;;;1.92;0.90;;;;;;;;;;5020295;28;20115;-74
2023/04/12 08:04:42;;;;;;;2.60;1.40;;;;;;;;;;4983764;28;20190;-74
2023/04/12 08:07:12;;;;;;;3.33;1.15;;;;;;;;;;5013837;28;20054;-74
2023/04/12 08:09:39;;;;;;;3.10;1.10;;;;;;;;;;5025928;28;20057;-72
2023/04/12 08:12:06;;;;;;;2.83;1.00;;;;;;;;;;5020755;28;20103;-73
2023/04/12 08:14:33;;;;;;;2.65;1.10;;;;;;;;;;5022774;28;20371;-73
2023/04/12 08:17:06;;;;;;;3.40;1.10;;;;;;;;;;4998642;28;20057;-73
2023/04/12 08:19:33;;;;;;;1.55;0.93;;;;;;;;;;5012272;28;20050;-75
2023/04/12 08:22:09;;;;;;;2.00;1.08;;;;;;;;;;5012441;28;20073;-73
2023/04/12 08:24:40;;;;;;;3.10;1.10;;;;;;;;;;5009889;28;20140;-73
2023/04/12 08:27:12;;;;;;;3.28;1.00;;;;;;;;;;5010548;28;20056;-73
2023/04/12 08:29:43;;;;;;;5.05;1.13;;;;;;;;;;5021466;28;20057;-72
2023/04/12 08:32:15;;;;;;;3.92;1.02;;;;;;;;;;5017485;28;20053;-73
2023/04/12 08:34:44;;;;;;;3.72;1.23;;;;;;;;;;5024974;28;20056;-72
2023/04/12 08:37:11;;;;;;;2.67;1.08;;;;;;;;;;4995627;28;20053;-73
2023/04/12 08:39:45;;;;;;;3.53;1.25;;;;;;;;;;5015764;28;20057;-73
2023/04/12 08:42:13;;;;;;;5.03;1.50;;;;;;;;;;5014723;28;20116;-73
2023/04/12 08:44:42;;;;;;;3.15;1.10;;;;;;;;;;5011293;28;20089;-72
2023/04/12 08:47:11;;;;;;;6.18;1.33;;;;;;;;;;5010104;28;20057;-73
2023/04/12 08:49:46;;;;;;;3.33;0.90;;;;;;;;;;5016220;28;20049;-72
2023/04/12 08:52:14;;;;;;;3.00;1.33;;;;;;;;;;5008569;28;20069;-73
2023/04/12 08:54:43;;;;;;;;;;;;;;;;;;5009706;28;20066;-72
2023/04/12 08:57:11;;;;;;;3.75;1.20;;;;;;;;;;5006352;28;19932;-72
2023/04/12 08:59:38;;;;;;;2.78;1.27;;;;;;;;;;5015154;28;20061;-73
2023/04/12 09:02:05;;;;;;;5.43;1.50;;;;;;;;;;5021971;28;20182;-72
2023/04/12 09:04:32;;;;;;;3.15;1.35;;;;;;;;;;5005067;28;20056;-74
2023/04/12 09:07:07;;;;;;;4.50;1.15;;;;;;;;;;5005481;28;20060;-73
2023/04/12 09:09:54;;;;;;;5.93;1.30;;;;;;;;;;5020853;28;20049;-75
2023/04/12 09:12:23;;;;;;;3.10;1.20;;;;;;;;;;5023314;28;20146;-73
2023/04/12 09:15:05;;;;;;;2.83;1.25;;;;;;;;;;4997116;28;20080;-73
2023/04/12 09:17:41;;;;;;;4.25;1.38;;;;;;;;;;5027129;28;20103;-75
2023/04/12 09:20:24;;;;;;;6.40;1.35;;;;;;;;;;5037648;28;20064;-73
2023/04/12 09:22:55;;;;;;;3.25;1.20;;;;;;;;;;5039616;28;20160;-72
2023/04/12 09:25:38;;;;;;;6.70;1.40;;;;;;;;;;4976248;28;20082;-74
2023/04/12 09:28:05;;;;;;;7.47;1.30;;;;;;;;;;5008971;28;20062;-72
2023/04/12 09:30:41;;;;;;;7.03;1.33;;;;;;;;;;5009162;28;20053;-72
2023/04/12 09:33:10;;;;;;;4.70;1.20;;;;;;;;;;4999022;28;20057;-74
2023/04/12 09:35:49;;;;;;;3.88;1.25;;;;;;;;;;4987753;28;20054;-73
2023/04/12 09:38:16;;;;;;;;;;;;;;;;;;4988816;28;20060;-72
2023/04/12 09:40:44;;;;;;;2.95;1.35;;;;;;;;;;5035494;28;19964;-73
2023/04/12 09:43:14;;;;;;;5.05;1.27;;;;;;;;;;5007430;28;20053;-72
2023/04/12 09:45:41;;;;;;;7.57;1.55;;;;;;;;;;5008319;28;20053;-73
2023/04/12 09:48:17;;;;;;;4.40;1.48;;;;;;;;;;5008570;28;20054;-74
2023/04/12 09:50:46;;;;;;;5.07;1.50;;;;;;;;;;5030460;28;20060;-73
2023/04/12 09:53:21;;;;;;;4.97;1.33;;;;;;;;;;5022183;28;20096;-72
2023/04/12 09:55:50;;;;;;;12.10;1.70;;;;;;;;;;5031040;28;20095;-74
2023/04/12 09:58:23;;;;;;;5.88;1.40;;;;;;;;;;4998705;28;20056;-75
2023/04/12 10:00:53;;;;;;;8.23;1.92;;;;;;;;;;5014780;28;20057;-74
2023/04/12 10:03:20;;;;;;;5.20;1.20;;;;;;;;;;5001767;28;20073;-73
2023/04/12 10:05:47;;;;;;;7.85;1.33;;;;;;;;;;4982090;28;20057;-73
2023/04/12 10:08:16;;;;;;;7.35;1.45;;;;;;;;;;5020076;28;20113;-72
2023/04/12 10:10:46;;;;;;;5.38;1.15;;;;;;;;;;5014234;28;20057;-72
2023/04/12 10:13:15;;;;;;;5.97;1.45;;;;;;;;;;5025356;28;20116;-73
2023/04/12 10:15:46;;;;;;;3.28;1.17;;;;;;;;;;4996088;28;20140;-73
2023/04/12 10:18:18;;;;;;;5.43;1.40;;;;;;;;;;5008024;28;20057;-74
2023/04/12 10:20:56;;;;;;;5.13;1.20;;;;;;;;;;4984944;28;20049;-73
2023/04/12 10:23:25;;;;;;;6.28;1.30;;;;;;;;;;5002356;28;20076;-74
2023/04/12 10:25:53;;;;;;;4.93;1.25;;;;;;;;;;5015016;28;20072;-72
2023/04/12 10:28:23;;;;;;;4.15;1.48;;;;;;;;;;5035126;28;20709;-73
2023/04/12 10:30:53;;;;;;;8.13;1.33;;;;;;;;;;5019416;28;20057;-72
2023/04/12 10:33:25;;;;;;;7.07;1.40;;;;;;;;;;4991170;28;20308;-75
2023/04/12 10:35:56;;;;;;;7.35;1.60;;;;;;;;;;4985546;28;20110;-72
2023/04/12 10:38:26;;;;;;;6.47;1.50;;;;;;;;;;5019217;28;20079;-74
2023/04/12 10:41:14;;;;;;;4.27;1.53;;;;;;;;;;5015964;28;20161;-72
2023/04/12 10:43:45;;;;;;;9.63;1.52;;;;;;;;;;5027449;28;20323;-74
2023/04/12 10:46:30;;;;;;;13.25;2.00;;;;;;;;;;5020244;28;20049;-73
2023/04/12 10:49:02;;;;;;;9.02;1.48;;;;;;;;;;5017629;28;20053;-74
2023/04/12 10:51:40;;;;;;;9.52;1.40;;;;;;;;;;5015490;28;20061;-72
2023/04/12 10:54:24;;;;;;;6.57;1.70;;;;;;;;;;5021724;28;20084;-72
2023/04/12 10:56:56;;;;;;;4.35;1.40;;;;;;;;;;5010181;28;20081;-72
2023/04/12 10:59:46;;;;;;;5.85;1.52;;;;;;;;;;5013486;28;20104;-74
2023/04/12 11:02:17;;;;;;;4.80;1.50;;;;;;;;;;5020580;28;20055;-74
2023/04/12 11:05:00;;;;;;;5.75;1.23;;;;;;;;;;5015385;28;20057;-74
2023/04/12 11:07:38;;;;;;;5.70;1.55;;;;;;;;;;5036979;28;20065;-72
2023/04/12 11:10:18;;;;;;;6.78;1.48;;;;;;;;;;5018249;28;20075;-72
2023/04/12 11:12:48;;;;;;;7.97;1.88;;;;;;;;;;5017034;28;20057;-74
2023/04/12 11:15:17;;;;;;;5.82;1.48;;;;;;;;;;4986664;28;20075;-74
2023/04/12 11:17:43;;;;;;;;;;;;;;;;;;5012235;28;20113;-74
2023/04/12 11:20:15;;;;;;;10.98;1.40;;;;;;;;;;4985710;28;19929;-73
2023/04/12 11:22:42;;;;;;;6.03;1.58;;;;;;;;;;5003726;28;20064;-74
2023/04/12 11:25:10;;;;;;;5.63;1.40;;;;;;;;;;5006524;28;20077;-73
2023/04/12 11:27:38;;;;;;;9.68;1.50;;;;;;;;;;5010654;28;20056;-73
2023/04/12 11:30:10;;;;;;;3.72;1.40;;;;;;;;;;5031744;28;20049;-74
2023/04/12 11:32:41;;;;;;;9.40;1.40;;;;;;;;;;5019569;28;20088;-74
2023/04/12 11:35:11;;;;;;;8.10;1.42;;;;;;;;;;5004233;28;20129;-73
2023/04/12 11:37:38;;;;;;;5.22;1.30;;;;;;;;;;5007751;28;20104;-74
2023/04/12 11:40:11;;;;;;;7.15;1.40;;;;;;;;;;5018000;28;20053;-74
2023/04/12 11:42:43;;;;;;;9.50;1.60;;;;;;;;;;5003782;28;20048;-72
2023/04/12 11:45:19;;;;;;;7.55;1.35;;;;;;;;;;5007243;28;20052;-74
2023/04/12 11:48:05;;;;;;;7.43;1.58;;;;;;;;;;5013808;28;20062;-74
2023/04/12 11:50:32;;;;;;;9.07;1.30;;;;;;;;;;5015537;28;20069;-74
2023/04/12 11:53:09;;;;;;;8.65;1.40;;;;;;;;;;5008622;28;20081;-72
2023/04/12 11:55:36;;;;;;;4.95;1.52;;;;;;;;;;5023977;28;20057;-74
2023/04/12 11:58:07;;;;;;;6.25;1.35;;;;;;;;;;5002041;28;20065;-72
2023/04/12 12:00:34;;;;;;;5.70;1.20;;;;;;;;;;5018074;28;20080;-75
2023/04/12 12:03:04;;;;;;;8.93;1.67;;;;;;;;;;5017415;28;20048;-74
2023/04/12 12:05:37;;;;;;;9.02;1.88;;;;;;;;;;5003909;28;20140;-73
2023/04/12 12:08:06;;;;;;;9.23;1.90;;;;;;;;;;5008826;28;20056;-72
2023/04/12 12:10:33;;;;;;;6.68;1.30;;;;;;;;;;5005383;28;20056;-72
2023/04/12 12:13:10;;;;;;;7.18;1.63;;;;;;;;;;5021223;28;20080;-72
2023/04/12 12:15:39;;;;;;;5.50;1.42;;;;;;;;;;5011719;28;20095;-72
2023/04/12 12:18:13;;;;;;;4.95;1.60;;;;;;;;;;5003345;28;20057;-74
2023/04/12 12:20:41;;;;;;;6.90;1.77;;;;;;;;;;5019073;28;20052;-72
2023/04/12 12:23:11;;;;;;;4.45;1.40;;;;;;;;;;5035498;28;20060;-73
2023/04/12 12:25:38;;;;;;;8.82;1.55;;;;;;;;;;5004723;28;20255;-73
2023/04/12 12:28:06;;;;;;;6.32;1.75;;;;;;;;;;5017521;28;20053;-73
2023/04/12 12:30:39;;;;;;;4.45;1.48;;;;;;;;;;5025041;28;20049;-73
2023/04/12 12:33:07;;;;;;;4.90;1.50;;;;;;;;;;5032271;28;20060;-73
2023/04/12 12:35:37;;;;;;;5.25;1.17;;;;;;;;;;5006614;28;20080;-72
2023/04/12 12:38:07;;;;;;;7.32;1.40;;;;;;;;;;5015696;28;20049;-72
2023/04/12 12:40:40;;;;;;;9.52;1.75;;;;;;;;;;5011617;28;20052;-72
2023/04/12 12:43:06;;;;;;;5.50;1.40;;;;;;;;;;5035088;28;20060;-74
2023/04/12 12:45:34;;;;;;;4.85;1.33;;;;;;;;;;5014531;28;20057;-74
2023/04/12 12:48:02;;;;;;;7.05;1.27;;;;;;;;;;5016465;28;20053;-73
2023/04/12 12:50:32;;;;;;;7.80;1.70;;;;;;;;;;5026129;28;20057;-72
2023/04/12 12:53:01;;;;;;;5.70;1.40;;;;;;;;;;5014657;28;20064;-72
2023/04/12 12:55:29;;;;;;;8.55;1.52;;;;;;;;;;4992108;28;21347;-74
2023/04/12 12:57:56;;;;;;;9.13;1.50;;;;;;;;;;5007449;28;20049;-72
2023/04/12 13:00:24;;;;;;;7.33;1.10;;;;;;;;;;5019367;28;20045;-73
2023/04/12 13:02:51;;;;;;;5.00;1.20;;;;;;;;;;5016637;28;20045;-73
2023/04/12 13:05:21;;;;;;;4.40;1.17;;;;;;;;;;4974212;28;20056;-73
2023/04/12 13:07:51;;;;;;;4.03;1.05;;;;;;;;;;5034209;28;20141;-73
2023/04/12 13:10:19;;;;;;;7.45;1.20;;;;;;;;;;5019765;28;20053;-72
2023/04/12 13:12:47;;;;;;;;;;;;;;;;;;5015331;28;20129;-74
2023/04/12 13:15:16;;;;;;;5.93;0.95;;;;;;;;;;4979216;28;19934;-73
2023/04/12 13:17:49;;;;;;;2.45;0.85;;;;;;;;;;5046646;28;20068;-74
2023/04/12 13:20:18;;;;;;;3.75;0.80;;;;;;;;;;5026702;28;20079;-73
2023/04/12 13:22:45;;;;;;;8.98;1.08;;;;;;;;;;5022361;28;20077;-73
2023/04/12 13:25:12;;;;;;;5.20;0.95;;;;;;;;;;5046456;28;20057;-74
2023/04/12 13:27:47;;;;;;;3.97;0.93;;;;;;;;;;5047635;28;20061;-73
2023/04/12 13:30:19;;;;;;;7.27;1.13;;;;;;;;;;5034832;28;20052;-73
2023/04/12 13:32:46;;;;;;;8.23;1.25;;;;;;;;;;5036433;28;20319;-73
2023/04/12 13:35:15;;;;;;;8.77;1.25;;;;;;;;;;5017547;28;20083;-72
2023/04/12 13:37:48;;;;;;;6.88;1.20;;;;;;;;;;5024017;28;20057;-74
2023/04/12 13:40:14;;;;;;;4.75;1.00;;;;;;;;;;5013777;28;20073;-71
2023/04/12 13:42:41;;;;;;;4.10;0.80;;;;;;;;;;5012123;28;20076;-73
2023/04/12 13:45:11;;;;;;;11.68;1.15;;;;;;;;;;5016883;28;20064;-72
2023/04/12 13:47:38;;;;;;;4.78;1.10;;;;;;;;;;5029036;28;20127;-72
2023/04/12 13:50:11;;;;;;;4.85;0.95;;;;;;;;;;5032145;28;20092;-72
2023/04/12 13:52:38;;;;;;;4.82;1.05;;;;;;;;;;5026549;28;20048;-71
2023/04/12 13:55:17;;;;;;;6.43;0.90;;;;;;;;;;5001123;28;20068;-72
2023/04/12 13:57:44;;;;;;;5.47;1.30;;;;;;;;;;4992809;28;20118;-72
2023/04/12 14:00:14;;;;;;;4.03;0.88;;;;;;;;;;5019173;28;20057;-73
2023/04/12 14:02:47;;;;;;;5.18;1.10;;;;;;;;;;5056549;28;20155;-72
2023/04/12 14:05:38;;;;;;;4.60;1.25;;;;;;;;;;4990883;28;20063;-73
2023/04/12 14:08:05;;;;;;;2.45;1.00;;;;;;;;;;4995561;28;20076;-72
2023/04/12 14:10:35;;;;;;;3.50;1.33;;;;;;;;;;4999632;28;20049;-72
2023/04/12 14:13:18;;;;;;;5.30;1.08;;;;;;;;;;5021642;28;20053;-73
2023/04/12 14:15:51;;;;;;;5.63;1.10;;;;;;;;;;4962371;28;20049;-72
2023/04/12 14:18:19;;;;;;;3.10;0.98;;;;;;;;;;5002089;28;20049;-73
2023/04/12 14:21:01;;;;;;;7.93;1.13;;;;;;;;;;5014751;28;20111;-70
2023/04/12 14:23:32;;;;;;;4.80;1.10;;;;;;;;;;5028710;28;20093;-73
2023/04/12 14:26:02;;;;;;;4.15;1.25;;;;;;;;;;4944580;28;20071;-71
2023/04/12 14:28:33;;;;;;;4.05;0.80;;;;;;;;;;5015765;28;20065;-71
2023/04/12 14:31:13;;;;;;;2.47;0.80;;;;;;;;;;5010104;28;20123;-73
2023/04/12 14:33:40;;;;;;;5.95;1.00;;;;;;;;;;5034119;28;20049;-71
2023/04/12 14:36:07;;;;;;;3.55;0.98;;;;;;;;;;4985412;28;20064;-73
2023/04/12 14:38:34;;;;;;;3.25;0.90;;;;;;;;;;5004782;28;20076;-72
2023/04/12 14:41:08;;;;;;;3.78;0.82;;;;;;;;;;4998783;28;20061;-72
2023/04/12 14:43:39;;;;;;;2.65;1.25;;;;;;;;;;4997925;28;20064;-71
2023/04/12 14:46:26;;;;;;;1.98;1.00;;;;;;;;;;4968273;28;20059;-74
2023/04/12 14:48:53;;;;;;;2.47;0.73;;;;;;;;;;5010426;28;20083;-72
2023/04/12 14:51:20;;;;;;;1.73;0.80;;;;;;;;;;5010496;28;20155;-73
2023/04/12 14:53:52;;;;;;;4.47;1.52;;;;;;;;;;5006479;28;20148;-73
2023/04/12 14:56:25;;;;;;;5.53;0.93;;;;;;;;;;4933579;28;20056;-73
2023/04/12 14:58:55;;;;;;;3.40;0.80;;;;;;;;;;5018791;28;20080;-75
2023/04/12 15:01:25;;;;;;;5.93;1.17;;;;;;;;;;4988708;28;20045;-74